Time;durP1;ratioP1;P1;durP2;ratioP2;P2;SDS_P1;SDS_P2;PMS_P1;PMS_P2;Temp;Humidity;BMP_temperature;BMP_pressure;BME280_temperature;BME280_humidity;BME280_pressure;Samples;Min_cycle;Max_cycle;Signal;HPM_P1;HPM_P2
2023/03/23 00:01:12;;;;;;;2.13;1.67;;;13.10;99.90;;;;;;5098987;28;20202;-92
2023/03/23 00:03:40;;;;;;;1.97;1.47;;;13.10;99.90;;;;;;5080648;28;20229;-91
2023/03/23 00:06:08;;;;;;;3.17;1.70;;;13.10;99.90;;;;;;5093792;28;20205;-92
2023/03/23 00:08:37;;;;;;;3.00;1.87;;;13.00;99.90;;;;;;5080368;28;20226;-92
2023/03/23 00:11:07;;;;;;;1.80;1.30;;;13.10;99.90;;;;;;5093594;28;20201;-92
2023/03/23 00:13:34;;;;;;;4.47;1.60;;;13.10;99.90;;;;;;5091086;28;20738;-92
2023/03/23 00:16:01;;;;;;;1.60;1.50;;;13.10;99.90;;;;;;5100849;28;20645;-92
2023/03/23 00:18:30;;;;;;;2.27;1.63;;;13.10;99.90;;;;;;5087997;28;20710;-91
2023/03/23 00:21:00;;;;;;;1.93;1.60;;;12.90;99.90;;;;;;5085785;28;20206;-92
2023/03/23 00:23:28;;;;;;;3.57;2.03;;;13.00;99.90;;;;;;5097361;28;20201;-93
2023/03/23 00:25:58;;;;;;;2.97;1.70;;;13.00;99.90;;;;;;5101363;28;20207;-92
2023/03/23 00:28:28;;;;;;;4.27;1.93;;;12.80;99.90;;;;;;5087222;28;20234;-92
2023/03/23 00:30:59;;;;;;;3.17;1.80;;;12.70;99.90;;;;;;5077546;28;20266;-92
2023/03/23 00:33:28;;;;;;;3.13;1.60;;;12.60;99.90;;;;;;5079151;28;20199;-92
2023/03/23 00:35:56;;;;;;;2.33;1.67;;;12.50;99.90;;;;;;5078971;28;20214;-92
2023/03/23 00:38:25;;;;;;;4.07;1.83;;;12.50;99.90;;;;;;5099175;28;21593;-92
2023/03/23 00:40:53;;;;;;;2.87;1.97;;;12.30;99.90;;;;;;5096158;28;20222;-93
2023/03/23 00:43:24;;;;;;;2.30;2.10;;;12.30;99.90;;;;;;5088952;28;20300;-92
2023/03/23 00:45:53;;;;;;;3.00;2.27;;;12.40;99.90;;;;;;5083879;28;20213;-92
2023/03/23 00:48:26;;;;;;;3.00;1.67;;;12.30;99.90;;;;;;5084984;28;20682;-93
2023/03/23 00:50:54;;;;;;;2.33;1.93;;;12.30;99.90;;;;;;5077755;28;20240;-91
2023/03/23 00:53:21;;;;;;;4.30;1.70;;;12.40;99.90;;;;;;5077946;28;20316;-92
2023/03/23 00:55:52;;;;;;;2.27;1.70;;;12.50;99.90;;;;;;5079412;28;20202;-92
2023/03/23 00:58:19;;;;;;;3.37;1.93;;;12.50;99.90;;;;;;5078405;28;20237;-93
2023/03/23 01:00:47;;;;;;;2.73;1.90;;;12.40;99.90;;;;;;5078102;28;20206;-93
2023/03/23 01:03:18;;;;;;;1.97;1.77;;;12.40;99.90;;;;;;5077581;28;20306;-92
2023/03/23 01:05:47;;;;;;;4.00;2.03;;;12.40;99.90;;;;;;5078927;28;20570;-92
2023/03/23 01:08:31;;;;;;;4.50;2.10;;;12.30;99.90;;;;;;5078256;28;20222;-92
2023/03/23 01:11:07;;;;;;;2.30;1.87;;;12.30;99.90;;;;;;5078721;28;20256;-92
2023/03/23 01:13:36;;;;;;;4.27;1.90;;;12.30;99.90;;;;;;5080235;28;20293;-93
2023/03/23 01:16:06;;;;;;;3.20;2.00;;;12.20;99.90;;;;;;5078422;28;20206;-92
2023/03/23 01:18:37;;;;;;;2.57;1.93;;;12.10;99.90;;;;;;5077349;28;20229;-92
2023/03/23 01:21:10;;;;;;;3.10;2.00;;;12.00;99.90;;;;;;5079512;28;20202;-92
2023/03/23 01:23:40;;;;;;;4.53;2.10;;;12.20;99.90;;;;;;5080153;28;20675;-92
2023/03/23 01:26:09;;;;;;;3.03;1.80;;;12.00;99.90;;;;;;5079658;28;20249;-92
2023/03/23 01:28:37;;;;;;;2.63;1.80;;;12.00;99.90;;;;;;5078443;28;20268;-92
2023/03/23 01:31:06;;;;;;;4.43;1.80;;;12.00;99.90;;;;;;5076454;28;20198;-95
2023/03/23 01:33:35;;;;;;;3.57;1.90;;;12.00;99.90;;;;;;5078156;28;20232;-94
2023/03/23 01:36:04;;;;;;;1.97;1.73;;;12.00;99.90;;;;;;5077201;28;20209;-93
2023/03/23 01:38:32;;;;;;;5.23;2.00;;;11.90;99.90;;;;;;5077212;28;20217;-94
2023/03/23 01:40:59;;;;;;;4.70;2.47;;;12.00;99.90;;;;;;5077435;28;20206;-93
2023/03/23 01:43:27;;;;;;;5.90;2.20;;;11.90;99.90;;;;;;5078640;28;20285;-93
2023/03/23 01:45:54;;;;;;;5.10;2.17;;;11.80;99.90;;;;;;5077773;28;20620;-93
2023/03/23 01:48:25;;;;;;;6.20;1.90;;;11.90;99.90;;;;;;5079336;28;20645;-93
2023/03/23 01:50:57;;;;;;;2.20;2.00;;;11.80;99.90;;;;;;5092333;28;20430;-93
2023/03/23 01:53:29;;;;;;;2.80;1.80;;;11.70;99.90;;;;;;5079875;28;20198;-92
2023/03/23 01:56:00;;;;;;;3.63;2.10;;;11.60;99.90;;;;;;5079855;28;20202;-93
2023/03/23 01:58:31;;;;;;;3.50;1.97;;;11.70;99.90;;;;;;5082366;28;20314;-93
2023/03/23 02:01:01;;;;;;;5.30;2.10;;;11.60;99.90;;;;;;5088675;28;20233;-93
2023/03/23 02:03:30;;;;;;;2.50;2.00;;;11.60;99.90;;;;;;5089297;28;20215;-93
2023/03/23 02:06:02;;;;;;;2.23;1.90;;;11.50;99.90;;;;;;5084953;28;20298;-93
2023/03/23 02:08:34;;;;;;;4.40;2.30;;;11.50;99.90;;;;;;5087941;28;20254;-93
2023/03/23 02:11:09;;;;;;;2.63;1.70;;;11.50;99.90;;;;;;5085251;28;20209;-93
2023/03/23 02:13:36;;;;;;;3.83;1.83;;;11.50;99.90;;;;;;5090833;28;20265;-93
2023/03/23 02:16:12;;;;;;;4.70;2.23;;;11.50;99.90;;;;;;5086426;28;20292;-93
2023/03/23 02:18:48;;;;;;;6.57;2.03;;;11.40;99.90;;;;;;5084616;28;20232;-93
2023/03/23 02:21:46;;;;;;;2.50;1.60;;;11.60;99.90;;;;;;5077735;28;20217;-93
2023/03/23 02:24:56;;;;;;;2.47;2.20;;;11.70;99.90;;;;;;5076384;28;20202;-93
2023/03/23 02:27:53;;;;;;;3.83;1.90;;;11.80;99.90;;;;;;5030113;28;20620;-93
2023/03/23 02:30:50;;;;;;;1.93;1.70;;;11.80;99.90;;;;;;5069278;28;20257;-92
2023/03/23 02:33:45;;;;;;;2.80;1.90;;;11.90;99.90;;;;;;5075441;28;20660;-92
2023/03/23 02:36:20;;;;;;;1.80;1.63;;;11.90;99.90;;;;;;5077704;28;20575;-93
2023/03/23 02:38:56;;;;;;;2.67;2.07;;;11.90;99.90;;;;;;5076645;28;20218;-92
2023/03/23 02:41:28;;;;;;;2.57;1.90;;;11.90;99.90;;;;;;5077046;28;20213;-93
2023/03/23 02:43:57;;;;;;;3.20;1.97;;;12.00;99.90;;;;;;5082149;28;20251;-93
2023/03/23 02:46:26;;;;;;;3.07;2.00;;;11.80;99.90;;;;;;5081408;28;20209;-93
2023/03/23 02:48:56;;;;;;;3.63;1.80;;;11.90;99.90;;;;;;5091775;28;20281;-93
2023/03/23 02:51:25;;;;;;;3.90;1.97;;;11.80;99.90;;;;;;5096548;28;20199;-93
2023/03/23 02:53:54;;;;;;;3.57;2.23;;;11.80;99.90;;;;;;5102232;28;20186;-93
2023/03/23 02:56:27;;;;;;;5.37;2.10;;;11.80;99.90;;;;;;5088806;28;20290;-92
2023/03/23 02:58:55;;;;;;;3.13;2.10;;;11.70;99.90;;;;;;5083720;28;20226;-93
2023/03/23 03:01:52;;;;;;;4.00;1.93;;;11.70;99.90;;;;;;5097958;28;20198;-94
2023/03/23 03:04:28;;;;;;;3.90;2.30;;;11.60;99.90;;;;;;5071339;28;20206;-93
2023/03/23 03:07:18;;;;;;;3.90;2.20;;;11.50;99.90;;;;;;5093594;28;20208;-94
2023/03/23 03:09:52;;;;;;;3.33;2.20;;;11.50;99.90;;;;;;5085348;28;20217;-93
2023/03/23 03:12:32;;;;;;;3.17;2.03;;;11.40;99.90;;;;;;5102271;28;20766;-94
2023/03/23 03:15:07;;;;;;;2.63;1.93;;;11.40;99.90;;;;;;5091099;28;20273;-91
2023/03/23 03:17:40;;;;;;;3.07;2.47;;;11.40;99.90;;;;;;5091847;28;20244;-92
2023/03/23 03:20:15;;;;;;;4.70;3.30;;;11.40;99.90;;;;;;5083106;28;20237;-93
2023/03/23 03:22:45;;;;;;;4.03;2.07;;;11.40;99.90;;;;;;5084574;28;20221;-93
2023/03/23 03:25:16;;;;;;;2.30;1.80;;;11.40;99.90;;;;;;5083532;28;20219;-94
2023/03/23 03:27:52;;;;;;;4.10;2.13;;;11.40;99.90;;;;;;5099627;28;20216;-95
2023/03/23 03:30:26;;;;;;;2.13;1.83;;;11.50;99.90;;;;;;5109448;28;20190;-92
2023/03/23 03:32:54;;;;;;;5.63;2.77;;;11.40;99.90;;;;;;5066514;22;20224;-82
2023/03/23 03:35:24;;;;;;;4.20;2.30;;;11.30;99.90;;;;;;5045188;28;20204;-82
2023/03/23 03:37:51;;;;;;;3.30;2.10;;;11.30;99.90;;;;;;5043156;28;20195;-81
2023/03/23 03:40:20;;;;;;;3.73;2.00;;;11.20;99.90;;;;;;5043122;28;20191;-82
2023/03/23 03:42:47;;;;;;;3.23;2.30;;;11.20;99.90;;;;;;5046136;28;20314;-82
2023/03/23 03:45:16;;;;;;;3.77;2.13;;;11.20;99.90;;;;;;5045684;28;20206;-82
2023/03/23 03:47:43;;;;;;;2.67;2.10;;;11.20;99.90;;;;;;5044042;28;20207;-82
2023/03/23 03:50:10;;;;;;;4.00;2.23;;;11.10;99.90;;;;;;5044593;28;20271;-82
2023/03/23 03:52:40;;;;;;;3.70;2.20;;;11.00;99.90;;;;;;5043102;28;20219;-82
2023/03/23 03:55:08;;;;;;;2.63;2.03;;;10.90;99.90;;;;;;5044277;28;20219;-82
2023/03/23 03:57:35;;;;;;;3.40;2.37;;;10.90;99.90;;;;;;5043702;28;20219;-82
2023/03/23 04:00:12;;;;;;;2.93;2.27;;;10.90;99.90;;;;;;5042653;28;20460;-82
2023/03/23 04:02:40;;;;;;;3.40;2.20;;;10.80;99.90;;;;;;5044138;28;20241;-82
2023/03/23 04:05:08;;;;;;;5.43;2.53;;;10.80;99.90;;;;;;5042952;28;20203;-82
2023/03/23 04:07:37;;;;;;;4.93;2.40;;;11.00;99.90;;;;;;5042580;28;20223;-82
2023/03/23 04:10:06;;;;;;;2.53;2.10;;;10.90;99.90;;;;;;5043970;28;20254;-82
2023/03/23 04:12:34;;;;;;;3.30;2.40;;;11.00;99.90;;;;;;5043743;28;20219;-82
2023/03/23 04:15:01;;;;;;;3.90;2.00;;;11.00;99.90;;;;;;5044211;28;20664;-83
2023/03/23 04:17:28;;;;;;;3.77;2.13;;;11.00;99.90;;;;;;5043340;28;20786;-82
2023/03/23 04:19:57;;;;;;;4.37;1.93;;;11.00;99.90;;;;;;5044594;28;20212;-82
2023/03/23 04:22:29;;;;;;;2.97;2.00;;;11.00;99.90;;;;;;5046250;28;20216;-82
2023/03/23 04:25:00;;;;;;;4.57;2.60;;;11.10;99.90;;;;;;5041769;28;20250;-81
2023/03/23 04:27:28;;;;;;;6.77;3.80;;;11.10;99.90;;;;;;5043949;28;20196;-82
2023/03/23 04:29:57;;;;;;;3.00;2.27;;;11.10;99.90;;;;;;5041348;28;20542;-82
2023/03/23 04:32:28;;;;;;;4.90;2.20;;;11.10;99.90;;;;;;5043590;28;20338;-81
2023/03/23 04:34:56;;;;;;;3.00;2.23;;;11.20;99.90;;;;;;5042418;28;20215;-82
2023/03/23 04:37:28;;;;;;;2.37;1.80;;;11.30;99.90;;;;;;5041451;28;20204;-81
2023/03/23 04:39:59;;;;;;;2.63;1.93;;;11.20;99.90;;;;;;5043264;28;20214;-80
2023/03/23 04:42:29;;;;;;;3.97;2.37;;;11.20;99.90;;;;;;5045397;28;20707;-81
2023/03/23 04:44:56;;;;;;;2.87;1.77;;;11.30;99.90;;;;;;5046001;28;20207;-82
2023/03/23 04:47:23;;;;;;;3.37;2.17;;;11.20;99.90;;;;;;5045965;28;20214;-81
2023/03/23 04:49:50;;;;;;;3.33;1.90;;;11.30;99.90;;;;;;5044846;28;20224;-81
2023/03/23 04:52:17;;;;;;;2.40;1.87;;;11.30;99.90;;;;;;5045551;28;20258;-81
2023/03/23 04:54:44;;;;;;;4.40;1.97;;;11.20;99.90;;;;;;5045497;28;20253;-81
2023/03/23 04:57:12;;;;;;;2.83;1.80;;;11.10;99.90;;;;;;5044761;28;20242;-81
2023/03/23 04:59:40;;;;;;;3.77;1.90;;;11.10;99.90;;;;;;5044528;28;20368;-81
2023/03/23 05:02:07;;;;;;;2.40;1.80;;;11.20;99.90;;;;;;5045429;28;20291;-82
2023/03/23 05:04:34;;;;;;;5.17;2.43;;;11.20;99.90;;;;;;5044092;28;20620;-81
2023/03/23 05:07:01;;;;;;;2.03;1.67;;;11.20;99.90;;;;;;5045621;28;20565;-81
2023/03/23 05:09:28;;;;;;;3.83;1.90;;;11.20;99.90;;;;;;5043985;28;20242;-81
2023/03/23 05:11:54;;;;;;;2.90;1.57;;;11.20;99.90;;;;;;5044713;28;20227;-80
2023/03/23 05:14:22;;;;;;;2.27;1.70;;;11.20;99.90;;;;;;5044688;28;20225;-81
2023/03/23 05:16:51;;;;;;;3.63;1.80;;;11.30;99.90;;;;;;5044761;28;20230;-81
2023/03/23 05:19:18;;;;;;;1.40;1.30;;;11.30;99.90;;;;;;5043455;28;20265;-81
2023/03/23 05:21:45;;;;;;;1.70;1.50;;;11.30;99.90;;;;;;5045594;28;20219;-81
2023/03/23 05:24:12;;;;;;;2.60;1.40;;;11.40;99.90;;;;;;5044193;28;20199;-81
2023/03/23 05:26:39;;;;;;;1.73;1.33;;;11.50;99.90;;;;;;5043406;28;20658;-81
2023/03/23 05:29:06;;;;;;;1.27;1.13;;;11.40;99.90;;;;;;5043962;28;20227;-81
2023/03/23 05:31:33;;;;;;;1.40;1.20;;;11.50;99.90;;;;;;5043590;28;20211;-81
2023/03/23 05:34:01;;;;;;;3.90;1.40;;;11.50;99.90;;;;;;5044089;28;20192;-81
2023/03/23 05:36:28;;;;;;;2.03;1.10;;;11.60;99.90;;;;;;5043923;28;20210;-81
2023/03/23 05:38:56;;;;;;;1.60;1.23;;;11.50;99.90;;;;;;5043627;28;20215;-81
2023/03/23 05:41:24;;;;;;;1.23;1.13;;;11.60;99.90;;;;;;5042651;28;20204;-82
2023/03/23 05:43:50;;;;;;;2.07;1.30;;;11.60;99.90;;;;;;5045307;28;20199;-81
2023/03/23 05:46:17;;;;;;;3.47;1.43;;;11.60;99.90;;;;;;5043370;28;20210;-81
2023/03/23 05:48:44;;;;;;;1.40;1.20;;;11.60;99.90;;;;;;5044516;28;20238;-81
2023/03/23 05:51:13;;;;;;;3.23;1.20;;;11.60;99.90;;;;;;5043767;28;20286;-81
2023/03/23 05:53:39;;;;;;;1.67;1.00;;;11.60;99.90;;;;;;5044700;28;20665;-81
2023/03/23 05:56:08;;;;;;;1.13;0.97;;;11.60;99.90;;;;;;5044991;28;20294;-81
2023/03/23 05:58:34;;;;;;;1.67;1.10;;;11.50;99.90;;;;;;5044356;28;20310;-81
2023/03/23 06:01:01;;;;;;;1.40;0.97;;;11.50;99.90;;;;;;5043585;28;20213;-81
2023/03/23 06:03:28;;;;;;;0.80;0.80;;;11.60;99.90;;;;;;5044313;28;20230;-81
2023/03/23 06:05:55;;;;;;;3.10;1.20;;;11.60;99.90;;;;;;5045913;28;20271;-81
2023/03/23 06:08:23;;;;;;;1.00;0.90;;;11.60;99.90;;;;;;5054214;28;20213;-81
2023/03/23 06:10:50;;;;;;;2.43;1.20;;;11.60;99.90;;;;;;5046158;28;20250;-81
2023/03/23 06:13:17;;;;;;;1.37;1.00;;;11.60;99.90;;;;;;5041909;28;20254;-81
2023/03/23 06:15:44;;;;;;;1.23;1.00;;;11.60;99.90;;;;;;5043841;28;20263;-81
2023/03/23 06:18:12;;;;;;;1.77;1.00;;;11.60;99.90;;;;;;5042632;28;20267;-80
2023/03/23 06:20:40;;;;;;;1.13;1.00;;;11.60;99.90;;;;;;5041433;28;20211;-81
2023/03/23 06:23:08;;;;;;;1.73;1.00;;;11.60;99.90;;;;;;5042554;28;20215;-81
2023/03/23 06:25:36;;;;;;;1.70;0.97;;;11.80;99.90;;;;;;5043440;28;20218;-81
2023/03/23 06:28:04;;;;;;;1.70;1.43;;;11.80;99.90;;;;;;5043246;28;20207;-81
2023/03/23 06:30:31;;;;;;;1.37;1.00;;;11.90;99.90;;;;;;5047150;28;20258;-82
2023/03/23 06:32:57;;;;;;;1.60;1.50;;;11.80;99.90;;;;;;5046290;28;20235;-81
2023/03/23 06:35:25;;;;;;;2.13;1.33;;;11.80;99.90;;;;;;5047115;28;20207;-81
2023/03/23 06:37:53;;;;;;;1.30;1.20;;;11.90;99.90;;;;;;5045380;28;20271;-82
2023/03/23 06:40:21;;;;;;;1.90;1.30;;;11.80;99.90;;;;;;5046964;28;20214;-82
2023/03/23 06:42:49;;;;;;;2.27;1.30;;;11.90;99.90;;;;;;5046972;28;20247;-82
2023/03/23 06:45:19;;;;;;;2.27;1.20;;;11.90;99.90;;;;;;5046636;28;20274;-81
2023/03/23 06:47:48;;;;;;;1.13;1.00;;;12.00;99.90;;;;;;5048031;28;20203;-82
2023/03/23 06:50:15;;;;;;;1.10;0.80;;;12.00;99.90;;;;;;5045365;28;20242;-82
2023/03/23 06:52:42;;;;;;;1.20;1.00;;;12.20;99.90;;;;;;5046968;28;20314;-79
2023/03/23 06:55:09;;;;;;;1.20;1.10;;;12.20;99.90;;;;;;5045106;28;20219;-81
2023/03/23 06:57:36;;;;;;;2.23;1.33;;;12.50;99.90;;;;;;5045679;28;20211;-81
2023/03/23 07:00:13;;;;;;;0.80;0.80;;;12.50;99.90;;;;;;5045258;28;20218;-80
2023/03/23 07:02:40;;;;;;;1.50;0.93;;;12.50;99.90;;;;;;5045844;28;20227;-81
2023/03/23 07:05:08;;;;;;;1.70;1.30;;;12.60;99.90;;;;;;5045682;28;20267;-81
2023/03/23 07:07:35;;;;;;;1.73;1.30;;;12.70;99.90;;;;;;5045427;28;20208;-81
2023/03/23 07:10:03;;;;;;;2.00;1.20;;;12.80;99.90;;;;;;5046205;28;20223;-81
2023/03/23 07:12:29;;;;;;;1.17;1.03;;;12.90;99.90;;;;;;5045637;28;20212;-81
2023/03/23 07:14:56;;;;;;;1.60;0.90;;;12.70;99.90;;;;;;5045191;28;20203;-80
2023/03/23 07:17:24;;;;;;;2.27;1.77;;;12.70;99.90;;;;;;5045973;28;20270;-81
2023/03/23 07:19:51;;;;;;;1.53;1.30;;;12.60;99.90;;;;;;5044182;28;20643;-80
2023/03/23 07:22:18;;;;;;;2.10;1.20;;;12.60;99.90;;;;;;5045186;28;20731;-81
2023/03/23 07:24:45;;;;;;;2.63;1.30;;;12.60;99.90;;;;;;5046209;28;20219;-81
2023/03/23 07:27:12;;;;;;;1.60;1.50;;;12.60;99.90;;;;;;5045230;28;20243;-81
2023/03/23 07:29:39;;;;;;;1.40;1.30;;;12.70;99.90;;;;;;5045403;28;20790;-81
2023/03/23 07:32:06;;;;;;;2.17;1.43;;;12.90;99.90;;;;;;5046420;28;20239;-81
2023/03/23 07:34:34;;;;;;;1.57;1.10;;;12.90;99.90;;;;;;5046597;28;20215;-81
2023/03/23 07:37:01;;;;;;;2.27;1.30;;;13.00;99.90;;;;;;5047286;28;20226;-82
2023/03/23 07:39:28;;;;;;;1.70;1.40;;;13.10;99.90;;;;;;5045904;28;20211;-80
2023/03/23 07:41:55;;;;;;;1.80;1.50;;;13.20;99.90;;;;;;5044472;28;20220;-81
2023/03/23 07:44:23;;;;;;;2.47;1.57;;;13.50;99.90;;;;;;5045991;28;20218;-81
2023/03/23 07:46:50;;;;;;;1.63;1.20;;;13.40;99.90;;;;;;5045536;28;20207;-81
2023/03/23 07:49:17;;;;;;;2.93;1.50;;;13.70;99.90;;;;;;5044285;28;20235;-81
2023/03/23 07:51:46;;;;;;;1.70;1.20;;;13.90;99.90;;;;;;5045760;28;20230;-83
2023/03/23 07:54:14;;;;;;;1.67;1.23;;;14.20;99.90;;;;;;5042777;28;20227;-81
2023/03/23 07:56:41;;;;;;;2.30;1.30;;;14.70;99.90;;;;;;5043713;28;20257;-81
2023/03/23 07:59:09;;;;;;;2.33;1.38;;;14.70;99.90;;;;;;5043656;28;20211;-80
2023/03/23 08:01:36;;;;;;;1.83;1.48;;;14.50;99.90;;;;;;5046258;28;20254;-82
2023/03/23 08:04:03;;;;;;;1.30;1.20;;;14.10;99.90;;;;;;5044013;28;20496;-81
2023/03/23 08:06:34;;;;;;;3.55;1.55;;;14.10;99.90;;;;;;5044936;28;20214;-82
2023/03/23 08:09:06;;;;;;;1.58;1.40;;;14.10;99.90;;;;;;5044365;28;20200;-82
2023/03/23 08:11:34;;;;;;;3.97;1.60;;;14.10;99.90;;;;;;5045406;28;20286;-81
2023/03/23 08:14:01;;;;;;;1.75;1.50;;;14.10;99.90;;;;;;5044736;28;20291;-82
2023/03/23 08:16:27;;;;;;;1.50;1.30;;;14.00;99.90;;;;;;5044377;28;20258;-81
2023/03/23 08:18:54;;;;;;;2.72;1.40;;;14.00;99.90;;;;;;5044314;28;20257;-81
2023/03/23 08:21:22;;;;;;;2.22;1.52;;;14.00;99.90;;;;;;5044991;28;20617;-81
2023/03/23 08:23:49;;;;;;;3.97;1.67;;;14.20;99.90;;;;;;5045992;28;20216;-82
2023/03/23 08:26:17;;;;;;;2.73;1.50;;;14.10;99.90;;;;;;5044181;28;20215;-82
2023/03/23 08:28:44;;;;;;;2.77;1.80;;;14.20;99.90;;;;;;5044241;28;20302;-81
2023/03/23 08:31:12;;;;;;;1.70;1.60;;;14.20;99.90;;;;;;5045204;28;20224;-80
2023/03/23 08:33:40;;;;;;;3.45;1.50;;;14.10;99.90;;;;;;5044236;28;20291;-81
2023/03/23 08:36:08;;;;;;;1.70;1.45;;;14.00;99.90;;;;;;5045086;28;20204;-82
2023/03/23 08:38:35;;;;;;;1.23;1.13;;;14.10;99.90;;;;;;5043696;28;20203;-81
2023/03/23 08:41:04;;;;;;;3.17;1.70;;;14.10;99.90;;;;;;5043174;28;20215;-81
2023/03/23 08:43:34;;;;;;;5.50;2.15;;;14.00;99.90;;;;;;5044524;28;20235;-82
2023/03/23 08:46:01;;;;;;;3.25;1.60;;;14.00;99.90;;;;;;5042885;28;20223;-81
2023/03/23 08:48:28;;;;;;;4.20;1.70;;;14.10;99.90;;;;;;5043822;28;20250;-81
2023/03/23 08:50:55;;;;;;;2.50;1.63;;;14.10;99.90;;;;;;5043380;28;20254;-82
2023/03/23 08:53:23;;;;;;;2.95;1.48;;;14.10;99.90;;;;;;5042896;28;20227;-81
2023/03/23 08:55:50;;;;;;;3.77;1.90;;;14.10;99.90;;;;;;5043692;28;20199;-80
2023/03/23 08:58:17;;;;;;;3.60;1.57;;;14.10;99.90;;;;;;5044285;28;20215;-80
2023/03/23 09:00:46;;;;;;;4.68;1.70;;;14.20;99.90;;;;;;5043575;28;20196;-81
2023/03/23 09:03:13;;;;;;;1.63;1.52;;;14.20;99.90;;;;;;5044098;28;20298;-81
2023/03/23 09:05:45;;;;;;;2.55;1.65;;;14.20;99.90;;;;;;5044516;28;20204;-81
2023/03/23 09:08:13;;;;;;;5.57;1.63;;;14.30;99.90;;;;;;5043377;28;20259;-81
2023/03/23 09:10:40;;;;;;;2.50;1.63;;;14.30;99.90;;;;;;5043545;28;20234;-82
2023/03/23 09:13:07;;;;;;;3.63;1.50;;;14.40;99.90;;;;;;5043297;28;20724;-81
2023/03/23 09:15:34;;;;;;;3.75;1.52;;;14.30;99.90;;;;;;5043379;28;20215;-81
2023/03/23 09:18:03;;;;;;;4.05;1.73;;;14.30;99.90;;;;;;5042680;28;20202;-81
2023/03/23 09:20:30;;;;;;;2.38;1.73;;;14.20;99.90;;;;;;5044041;28;20291;-81
2023/03/23 09:22:58;;;;;;;3.03;1.45;;;14.20;99.90;;;;;;5042533;28;20235;-82
2023/03/23 09:25:26;;;;;;;3.93;2.43;;;14.20;99.90;;;;;;5043659;28;20271;-81
2023/03/23 09:27:56;;;;;;;2.55;1.60;;;14.20;99.90;;;;;;5043535;28;20208;-82
2023/03/23 09:30:24;;;;;;;3.90;2.08;;;14.20;99.90;;;;;;5042658;28;20231;-80
2023/03/23 09:32:51;;;;;;;4.82;1.83;;;14.30;99.90;;;;;;5042839;28;20283;-81
2023/03/23 09:35:21;;;;;;;4.70;1.70;;;14.30;99.90;;;;;;5044424;28;20191;-80
2023/03/23 09:37:49;;;;;;;3.28;1.80;;;14.30;99.90;;;;;;5042659;28;20678;-81
2023/03/23 09:40:19;;;;;;;2.22;1.60;;;14.40;99.90;;;;;;5043529;28;20220;-81
2023/03/23 09:43:00;;;;;;;3.08;1.45;;;14.30;99.90;;;;;;5043570;28;20226;-80
2023/03/23 09:45:31;;;;;;;3.70;1.70;;;14.40;99.90;;;;;;5043408;28;20228;-81
2023/03/23 09:48:11;;;;;;;2.23;1.63;;;14.40;99.90;;;;;;5042759;28;20203;-81
2023/03/23 09:50:43;;;;;;;2.78;1.65;;;14.50;99.90;;;;;;5043976;28;20242;-81
2023/03/23 09:53:17;;;;;;;5.15;1.70;;;14.50;99.90;;;;;;5042636;28;20231;-81
2023/03/23 09:55:45;;;;;;;3.45;1.67;;;14.50;99.90;;;;;;5042347;28;20265;-80
2023/03/23 09:58:17;;;;;;;1.83;1.63;;;14.50;99.90;;;;;;5042807;28;20215;-80
2023/03/23 10:00:58;;;;;;;5.07;1.70;;;14.60;99.90;;;;;;5044413;28;20525;-81
2023/03/23 10:03:31;;;;;;;3.83;1.60;;;14.60;99.90;;;;;;5043771;28;20215;-80
2023/03/23 10:06:00;;;;;;;3.05;1.67;;;14.70;99.90;;;;;;5048036;28;20211;-81
2023/03/23 10:08:30;;;;;;;4.40;1.77;;;14.90;99.90;;;;;;5046717;28;20582;-81
2023/03/23 10:11:02;;;;;;;2.88;1.90;;;15.00;99.90;;;;;;5037420;28;20277;-82
2023/03/23 10:13:45;;;;;;;3.88;1.80;;;15.00;99.90;;;;;;5047079;28;20224;-81
2023/03/23 10:16:16;;;;;;;3.40;1.90;;;15.10;99.90;;;;;;5047230;28;20270;-82
2023/03/23 10:18:51;;;;;;;2.50;1.73;;;15.20;99.90;;;;;;5047609;28;20207;-81
2023/03/23 10:21:23;;;;;;;3.47;1.80;;;15.00;99.90;;;;;;5047594;28;20202;-80
2023/03/23 10:23:55;;;;;;;3.85;1.60;;;14.80;99.90;;;;;;5047172;28;20211;-82
2023/03/23 10:26:30;;;;;;;3.17;1.48;;;14.70;99.90;;;;;;5047011;28;20267;-82
2023/03/23 10:29:01;;;;;;;5.10;1.52;;;14.60;99.90;;;;;;5047038;28;20266;-81
2023/03/23 10:31:33;;;;;;;3.33;1.65;;;14.70;99.90;;;;;;5046895;28;20224;-82
2023/03/23 10:34:05;;;;;;;3.78;1.70;;;14.60;99.90;;;;;;5046676;28;20212;-80
2023/03/23 10:36:37;;;;;;;3.03;1.65;;;14.70;99.90;;;;;;5045972;28;20203;-81
2023/03/23 10:39:12;;;;;;;5.70;1.70;;;14.70;99.90;;;;;;5045506;28;20204;-81
2023/03/23 10:41:39;;;;;;;4.15;1.58;;;14.70;99.90;;;;;;5045202;28;20223;-81
2023/03/23 10:44:17;;;;;;;3.92;1.80;;;14.70;99.90;;;;;;5046762;28;20282;-81
2023/03/23 10:46:48;;;;;;;4.82;1.60;;;14.70;99.90;;;;;;5047437;28;20212;-82
2023/03/23 10:49:20;;;;;;;4.70;1.75;;;14.80;99.90;;;;;;5048532;28;20260;-82
2023/03/23 10:51:57;;;;;;;4.45;1.80;;;14.80;99.90;;;;;;5047840;28;20238;-82
2023/03/23 10:54:33;;;;;;;4.10;1.75;;;14.90;99.90;;;;;;5046994;28;20301;-82
2023/03/23 10:57:00;;;;;;;5.65;2.15;;;15.00;99.90;;;;;;5048006;28;20207;-81
2023/03/23 10:59:29;;;;;;;4.97;1.92;;;15.20;99.90;;;;;;5047431;28;20207;-80
2023/03/23 11:01:58;;;;;;;5.47;1.80;;;15.50;99.90;;;;;;5047569;28;20223;-82
2023/03/23 11:04:27;;;;;;;6.35;2.03;;;16.10;99.90;;;;;;5048249;28;20208;-82
2023/03/23 11:07:00;;;;;;;6.20;2.15;;;16.50;99.90;;;;;;5045785;28;20208;-81
2023/03/23 11:09:36;;;;;;;3.00;1.58;;;16.50;99.90;;;;;;5046023;28;20207;-81
2023/03/23 11:12:03;;;;;;;5.13;2.10;;;16.90;99.90;;;;;;5046773;28;20231;-81
2023/03/23 11:14:32;;;;;;;3.53;1.50;;;17.20;99.90;;;;;;5046507;28;20267;-80
2023/03/23 11:17:01;;;;;;;5.88;1.77;;;17.00;99.90;;;;;;5044631;28;20208;-81
2023/03/23 11:19:31;;;;;;;3.92;1.83;;;17.00;99.90;;;;;;5045679;28;20218;-81
2023/03/23 11:22:09;;;;;;;4.00;2.00;;;17.60;99.90;;;;;;5044569;28;20227;-82
2023/03/23 11:24:41;;;;;;;3.15;1.65;;;17.70;99.90;;;;;;5045745;28;20238;-81
2023/03/23 11:27:09;;;;;;;3.03;1.38;;;18.00;99.90;;;;;;5046076;28;20218;-82
2023/03/23 11:29:38;;;;;;;5.60;1.90;;;18.10;1.00;;;;;;5045895;28;20771;-82
2023/03/23 11:32:10;;;;;;;3.22;1.75;;;17.90;1.00;;;;;;5045335;28;20238;-83
2023/03/23 11:34:42;;;;;;;4.40;2.03;;;18.00;1.00;;;;;;5045377;28;20203;-81
2023/03/23 11:37:15;;;;;;;3.75;1.80;;;18.00;1.00;;;;;;5044643;28;20211;-82
2023/03/23 11:39:57;;;;;;;4.75;1.85;;;17.60;99.90;;;;;;5045268;28;20267;-82
2023/03/23 11:42:27;;;;;;;4.22;1.58;;;17.90;99.90;;;;;;5044368;28;20241;-81
2023/03/23 11:44:56;;;;;;;6.03;2.15;;;17.60;1.00;;;;;;5045908;28;20207;-82
2023/03/23 11:47:29;;;;;;;4.70;1.80;;;17.70;1.00;;;;;;5044698;28;20231;-81
2023/03/23 11:50:03;;;;;;;3.92;2.13;;;18.20;1.00;;;;;;5044247;28;20246;-81
2023/03/23 11:52:40;;;;;;;4.85;1.95;;;18.30;1.00;;;;;;5044709;28;20227;-80
2023/03/23 11:55:14;;;;;;;7.43;1.60;;;18.30;1.00;;;;;;5044136;28;20207;-80
2023/03/23 11:57:41;;;;;;;4.38;2.03;;;18.10;99.90;;;;;;5045113;28;20187;-82
2023/03/23 12:00:18;;;;;;;6.15;2.20;;;17.60;99.90;;;;;;5045185;28;20585;-83
2023/03/23 12:03:23;;;;;;;3.13;2.05;;;17.40;99.90;;;;;;5044646;28;20246;-82
2023/03/23 12:05:57;;;;;;;5.35;2.42;;;17.30;1.00;;;;;;5044888;28;20203;-83
2023/03/23 12:08:39;;;;;;;3.05;1.90;;;17.30;1.00;;;;;;5044529;28;20694;-82
2023/03/23 12:11:19;;;;;;;5.93;2.00;;;16.90;1.00;;;;;;5043723;28;20230;-80
2023/03/23 12:14:10;;;;;;;4.50;2.15;;;16.60;1.00;;;;;;5044010;28;20290;-80
2023/03/23 12:16:48;;;;;;;5.10;1.92;;;16.60;99.90;;;;;;5042124;28;20204;-80
2023/03/23 12:19:24;;;;;;;5.82;1.90;;;16.30;99.90;;;;;;5044288;28;20207;-81
2023/03/23 12:22:00;;;;;;;3.90;1.92;;;16.40;99.90;;;;;;5041054;28;20222;-80
2023/03/23 12:24:48;;;;;;;6.80;2.05;;;16.30;1.00;;;;;;5059173;28;20198;-82
2023/03/23 12:27:26;;;;;;;5.95;2.03;;;16.30;99.90;;;;;;5062306;28;20218;-81
2023/03/23 12:30:03;;;;;;;3.90;1.90;;;16.20;1.00;;;;;;5062167;28;20209;-81
2023/03/23 12:32:53;;;;;;;5.88;1.90;;;16.00;1.00;;;;;;5061547;28;20227;-81
2023/03/23 12:35:34;;;;;;;4.45;1.65;;;15.90;1.00;;;;;;5045169;28;20310;-82
2023/03/23 12:38:14;;;;;;;5.88;1.85;;;15.60;1.00;;;;;;5043432;28;20199;-80
2023/03/23 12:40:56;;;;;;;2.65;1.30;;;15.30;1.00;;;;;;5045137;28;20655;-80
2023/03/23 12:43:29;;;;;;;4.25;1.05;;;14.80;94.10;;;;;;5046395;28;20310;-81
2023/03/23 12:46:29;;;;;;;2.28;1.00;;;14.60;99.90;;;;;;5043514;28;20241;-82
2023/03/23 12:49:01;;;;;;;2.15;0.80;;;14.80;73.10;;;;;;5023342;28;20239;-82
2023/03/23 12:51:34;;;;;;;0.77;0.52;;;14.60;99.90;;;;;;5044569;28;20306;-82
2023/03/23 12:54:17;;;;;;;2.00;0.70;;;14.70;99.90;;;;;;5042865;28;20207;-82
2023/03/23 12:56:52;;;;;;;3.80;0.93;;;14.40;99.90;;;;;;5043994;28;20246;-82
2023/03/23 12:59:23;;;;;;;1.27;1.07;;;13.80;99.90;;;;;;5045032;28;20257;-82
2023/03/23 13:01:56;;;;;;;2.08;1.20;;;13.40;99.90;;;;;;5044674;28;20306;-81
2023/03/23 13:04:27;;;;;;;1.17;0.98;;;13.40;99.90;;;;;;5045214;28;20194;-81
2023/03/23 13:06:54;;;;;;;1.00;0.90;;;13.30;99.90;;;;;;5044237;28;20211;-81